createdAt,value
2023-05-06T00:04:44.457Z,12.60
2023-05-06T00:09:48.344Z,12.50
2023-05-06T00:14:51.876Z,12.50
2023-05-06T00:19:56.192Z,12.50
2023-05-06T00:24:59.358Z,12.50
2023-05-06T00:30:02.323Z,12.60
2023-05-06T00:35:06.547Z,12.60
2023-05-06T00:40:10.846Z,12.60
2023-05-06T00:45:13.840Z,12.60
2023-05-06T00:50:17.329Z,12.50
2023-05-06T00:55:21.461Z,12.40
2023-05-06T01:00:24.510Z,12.40
2023-05-06T01:05:52.444Z,12.30
2023-05-06T01:11:15.909Z,12.20
2023-05-06T01:16:23.454Z,12.20
2023-05-06T01:21:34.922Z,12.10
2023-05-06T01:26:38.294Z,12.10
2023-05-06T01:31:50.232Z,11.90
2023-05-06T01:37:21.270Z,11.80
2023-05-06T01:42:26.063Z,11.70
2023-05-06T01:47:29.140Z,11.70
2023-05-06T01:52:31.990Z,11.70
2023-05-06T01:57:35.265Z,11.70
2023-05-06T02:02:38.512Z,11.70
2023-05-06T02:07:41.642Z,11.70
2023-05-06T02:12:44.465Z,11.60
2023-05-06T02:17:47.917Z,11.60
2023-05-06T02:22:51.043Z,11.50
2023-05-06T02:27:53.962Z,11.50
2023-05-06T02:32:57.830Z,11.40
2023-05-06T02:38:01.562Z,11.40
2023-05-06T02:43:04.681Z,11.40
2023-05-06T02:48:07.675Z,11.40
2023-05-06T02:53:13.162Z,11.40
2023-05-06T02:58:16.173Z,11.50
2023-05-06T03:03:19.108Z,11.50
2023-05-06T03:08:22.268Z,11.50
2023-05-06T03:13:25.107Z,11.50
2023-05-06T03:18:28.048Z,11.50
2023-05-06T03:23:31.198Z,11.40
2023-05-06T03:28:34.338Z,11.30
2023-05-06T03:33:37.343Z,11.30
2023-05-06T03:38:41.634Z,11.20
2023-05-06T03:43:44.716Z,11.10
2023-05-06T03:48:47.849Z,11.20
2023-05-06T03:53:52.346Z,11.10
2023-05-06T03:58:57.133Z,11.10
2023-05-06T04:04:00.338Z,11.20
2023-05-06T04:09:06.418Z,11.20
2023-05-06T04:14:09.422Z,11.30
2023-05-06T04:19:13.012Z,11.40
2023-05-06T04:24:18.705Z,11.50
2023-05-06T04:29:21.717Z,11.50
2023-05-06T04:34:25.268Z,11.70
2023-05-06T04:39:28.546Z,11.90
2023-05-06T04:44:34.078Z,12.10
2023-05-06T04:49:37.026Z,12.40
2023-05-06T04:54:39.932Z,12.60
2023-05-06T04:59:42.881Z,12.90
2023-05-06T05:04:45.717Z,13.20
2023-05-06T05:09:49.395Z,13.30
2023-05-06T05:14:52.568Z,13.40
2023-05-06T05:19:55.501Z,13.60
2023-05-06T05:24:58.574Z,13.70
2023-05-06T05:30:01.591Z,13.70
2023-05-06T05:35:06.132Z,13.80
2023-05-06T05:40:10.076Z,14.00
2023-05-06T05:45:12.892Z,14.10
2023-05-06T05:50:15.810Z,14.40
2023-05-06T05:55:18.650Z,14.60
2023-05-06T06:00:21.665Z,14.90
2023-05-06T06:05:24.616Z,15.20
2023-05-06T06:10:27.679Z,15.40
2023-05-06T06:15:31.834Z,15.70
2023-05-06T06:20:36.152Z,16.00
2023-05-06T06:25:39.062Z,16.40
2023-05-06T06:30:42.018Z,16.60
2023-05-06T06:35:45.024Z,16.70
2023-05-06T06:40:47.972Z,16.90
2023-05-06T06:45:51.400Z,17.10
2023-05-06T06:50:54.420Z,17.40
2023-05-06T06:55:57.242Z,17.50
2023-05-06T07:01:00.387Z,17.50
2023-05-06T07:06:03.605Z,17.70
2023-05-06T07:11:06.695Z,17.80
2023-05-06T07:16:09.904Z,18.00
2023-05-06T07:21:12.827Z,18.20
2023-05-06T07:26:15.864Z,18.50
2023-05-06T07:31:21.202Z,18.80
2023-05-06T07:36:24.737Z,19.10
2023-05-06T07:41:28.199Z,19.20
2023-05-06T07:46:31.412Z,19.40
2023-05-06T07:51:34.294Z,19.60
2023-05-06T07:56:37.479Z,19.80
2023-05-06T08:01:40.851Z,19.90
2023-05-06T08:06:43.942Z,20.10
2023-05-06T08:11:47.063Z,20.20
2023-05-06T08:16:51.018Z,20.40
2023-05-06T08:21:55.632Z,20.50
2023-05-06T08:26:58.567Z,20.70
2023-05-06T08:32:01.768Z,20.90
2023-05-06T08:37:04.658Z,21.30
2023-05-06T08:42:12.055Z,21.60
2023-05-06T08:47:15.133Z,21.90
2023-05-06T08:52:19.980Z,22.10
2023-05-06T08:57:22.999Z,22.00
2023-05-06T09:02:26.805Z,22.00
2023-05-06T09:07:30.100Z,22.10
2023-05-06T09:12:38.105Z,22.30
2023-05-06T09:17:41.205Z,22.70
2023-05-06T09:22:44.407Z,23.00
2023-05-06T09:27:47.382Z,23.20
2023-05-06T09:32:53.188Z,23.30
2023-05-06T09:37:56.820Z,23.70
2023-05-06T09:43:03.593Z,23.90
2023-05-06T09:48:08.404Z,24.00
2023-05-06T09:53:13.362Z,24.40
2023-05-06T09:58:17.625Z,24.60
2023-05-06T10:03:22.591Z,24.50
2023-05-06T10:08:26.466Z,24.50
2023-05-06T10:13:31.394Z,24.40
2023-05-06T10:18:37.151Z,24.30
2023-05-06T10:24:11.460Z,24.20
2023-05-06T10:29:15.095Z,24.10
2023-05-06T10:34:21.631Z,24.00
2023-05-06T10:39:25.334Z,23.90
2023-05-06T10:44:58.348Z,24.00
2023-05-06T10:50:33.744Z,24.10
2023-05-06T10:55:40.243Z,24.70
2023-05-06T11:00:57.110Z,25.10
2023-05-06T11:06:00.537Z,25.10
2023-05-06T11:11:48.059Z,25.20
2023-05-06T11:16:52.727Z,25.40
2023-05-06T11:21:58.531Z,25.50
2023-05-06T11:27:01.792Z,25.70
2023-05-06T11:32:21.540Z,25.40
2023-05-06T11:37:27.143Z,25.10
2023-05-06T11:42:30.010Z,24.80
2023-05-06T11:47:33.015Z,24.70
2023-05-06T11:52:36.212Z,24.30
2023-05-06T11:57:44.707Z,24.10
2023-05-06T12:02:47.588Z,23.70
2023-05-06T12:07:51.346Z,23.50
2023-05-06T12:12:54.986Z,23.30
2023-05-06T12:17:58.169Z,23.10
2023-05-06T12:23:15.706Z,23.00
2023-05-06T12:28:26.967Z,23.00
2023-05-06T12:33:45.755Z,23.00
2023-05-06T12:38:57.558Z,23.00
2023-05-06T12:44:00.685Z,23.10
2023-05-06T12:49:03.873Z,23.10
2023-05-06T12:54:30.960Z,23.10
2023-05-06T12:59:36.372Z,23.00
2023-05-06T13:04:39.429Z,22.80
2023-05-06T13:09:44.940Z,22.60
2023-05-06T13:14:47.864Z,22.50
2023-05-06T13:19:51.182Z,22.40
2023-05-06T13:24:54.219Z,22.20
2023-05-06T13:29:57.456Z,22.10
2023-05-06T13:35:00.669Z,21.80
2023-05-06T13:40:05.045Z,21.40
2023-05-06T13:45:09.133Z,21.00
2023-05-06T13:50:12.306Z,20.70
2023-05-06T13:55:16.905Z,20.50
2023-05-06T14:00:22.029Z,20.20
2023-05-06T14:05:25.294Z,20.00
2023-05-06T14:10:28.309Z,19.70
2023-05-06T14:15:31.342Z,19.20
2023-05-06T14:20:34.283Z,18.70
2023-05-06T14:25:37.352Z,18.30
2023-05-06T14:30:41.128Z,17.90
2023-05-06T14:35:46.307Z,17.70
2023-05-06T14:40:50.910Z,17.60
2023-05-06T14:45:54.372Z,17.60
2023-05-06T14:50:57.512Z,17.70
2023-05-06T14:56:00.874Z,17.80
2023-05-06T15:01:04.020Z,17.90
2023-05-06T15:06:06.969Z,18.00
2023-05-06T15:11:10.100Z,18.10
2023-05-06T15:16:13.024Z,18.30
2023-05-06T15:21:17.492Z,18.40
2023-05-06T15:26:21.603Z,18.60
2023-05-06T15:31:24.640Z,19.60
2023-05-06T15:36:27.858Z,21.00
2023-05-06T15:41:36.359Z,22.00
2023-05-06T15:46:39.848Z,22.40
2023-05-06T15:51:42.847Z,22.70
2023-05-06T15:56:46.668Z,23.10
2023-05-06T16:06:56.254Z,23.90
2023-05-06T16:11:59.184Z,24.20
2023-05-06T16:17:02.252Z,24.50
2023-05-06T16:22:05.194Z,24.50
2023-05-06T16:27:08.430Z,24.40
2023-05-06T16:32:11.918Z,24.40
2023-05-06T16:37:15.727Z,24.30
2023-05-06T16:42:18.616Z,24.10
2023-05-06T16:47:24.165Z,23.70
2023-05-06T16:52:28.998Z,23.10
2023-05-06T16:57:33.796Z,22.50
2023-05-06T17:02:37.847Z,22.00
2023-05-06T17:07:41.138Z,21.60
2023-05-06T17:12:44.223Z,21.10
2023-05-06T17:17:47.545Z,20.80
2023-05-06T17:22:50.907Z,20.50
2023-05-06T17:27:54.038Z,20.30
2023-05-06T17:32:57.172Z,20.10
2023-05-06T17:38:00.545Z,19.90
2023-05-06T17:43:03.683Z,19.80
2023-05-06T17:48:06.877Z,19.70
2023-05-06T17:53:10.057Z,19.60
2023-05-06T17:58:13.176Z,19.40
2023-05-06T18:03:16.501Z,19.30
2023-05-06T18:08:19.844Z,19.20
2023-05-06T18:13:23.664Z,19.10
2023-05-06T18:18:26.767Z,19.00
2023-05-06T18:23:30.033Z,18.90
2023-05-06T18:28:40.154Z,18.70
2023-05-06T18:33:43.436Z,18.60
2023-05-06T18:38:46.548Z,18.50
2023-05-06T18:43:49.544Z,18.40
2023-05-06T18:48:52.469Z,18.30
2023-05-06T18:53:55.729Z,18.20
2023-05-06T18:58:59.707Z,18.10
2023-05-06T19:04:02.704Z,17.90
2023-05-06T19:09:10.188Z,17.90
2023-05-06T19:14:13.372Z,17.90
2023-05-06T19:19:16.429Z,17.90
2023-05-06T19:24:19.483Z,17.90
2023-05-06T19:29:22.283Z,17.90
2023-05-06T19:34:25.761Z,17.80
2023-05-06T19:39:28.690Z,17.80
2023-05-06T19:44:31.876Z,17.80
2023-05-06T19:49:34.878Z,17.80
2023-05-06T19:54:37.928Z,17.80
2023-05-06T19:59:41.014Z,17.70
2023-05-06T20:04:44.195Z,17.60
2023-05-06T20:09:47.098Z,17.50
2023-05-06T20:14:50.031Z,17.40
2023-05-06T20:19:53.474Z,17.30
2023-05-06T20:25:13.070Z,17.30
2023-05-06T20:30:16.436Z,17.30
2023-05-06T20:35:19.989Z,17.30
2023-05-06T20:40:23.085Z,17.30
2023-05-06T20:45:26.185Z,17.30
2023-05-06T20:50:30.998Z,17.30
2023-05-06T20:55:34.251Z,17.30
2023-05-06T21:00:37.184Z,17.20
2023-05-06T21:05:40.212Z,17.20
2023-05-06T21:10:44.313Z,17.10
2023-05-06T21:15:47.051Z,17.10
2023-05-06T21:20:49.999Z,17.00
2023-05-06T21:25:53.017Z,16.90
2023-05-06T21:30:56.075Z,16.80
2023-05-06T21:35:58.911Z,16.70
2023-05-06T21:41:01.865Z,16.60
2023-05-06T21:46:04.808Z,16.50
2023-05-06T21:51:07.816Z,16.40
2023-05-06T21:56:11.015Z,16.30
2023-05-06T22:01:14.478Z,16.20
2023-05-06T22:06:17.585Z,16.10
2023-05-06T22:11:22.680Z,16.00
2023-05-06T22:16:25.800Z,15.90
2023-05-06T22:21:31.751Z,15.90
2023-05-06T22:26:34.885Z,15.90
2023-05-06T22:31:38.028Z,15.80
2023-05-06T22:36:41.504Z,15.80
2023-05-06T22:41:44.797Z,15.80
2023-05-06T22:46:47.862Z,15.80
2023-05-06T22:51:50.682Z,15.90
2023-05-06T22:56:53.684Z,15.90
2023-05-06T23:01:56.832Z,15.90
2023-05-06T23:06:59.744Z,15.90
2023-05-06T23:12:02.895Z,15.90
2023-05-06T23:17:07.169Z,15.90
2023-05-06T23:22:10.315Z,15.90
2023-05-06T23:27:13.147Z,15.90
2023-05-06T23:32:16.753Z,15.80
2023-05-06T23:37:19.753Z,15.80
2023-05-06T23:42:22.863Z,15.80
2023-05-06T23:47:26.691Z,15.60
2023-05-06T23:52:29.756Z,15.50
2023-05-06T23:57:32.812Z,15.40
